createdAt,value
2017-03-10T00:00:58.274Z,95.9
2017-03-10T00:02:00.428Z,95.9
2017-03-10T00:03:03.404Z,95.9
2017-03-10T00:04:05.873Z,95.9
2017-03-10T00:05:08.189Z,95.9
2017-03-10T00:06:11.163Z,95.9
2017-03-10T00:07:13.638Z,95.9
2017-03-10T00:08:16.443Z,95.9
2017-03-10T00:09:18.898Z,95.9
2017-03-10T00:10:21.182Z,95.8
2017-03-10T00:11:23.979Z,95.9
2017-03-10T00:12:26.458Z,95.8
2017-03-10T00:14:31.841Z,95.9
2017-03-10T00:15:34.296Z,95.9
2017-03-10T00:16:36.757Z,95.9
2017-03-10T00:17:39.716Z,95.9
2017-03-10T00:18:42.217Z,95.8
2017-03-10T00:19:44.674Z,95.8
2017-03-10T00:20:47.127Z,95.8
2017-03-10T00:21:49.636Z,95.9
2017-03-10T00:22:52.601Z,95.9
2017-03-10T00:23:55.086Z,95.8
2017-03-10T00:24:57.538Z,95.9
2017-03-10T00:26:00.327Z,95.9
2017-03-10T00:27:02.793Z,95.9
2017-03-10T00:28:05.243Z,95.9
2017-03-10T00:30:11.171Z,95.9
2017-03-10T00:31:13.122Z,95.8
2017-03-10T00:32:15.606Z,95.9
2017-03-10T00:33:18.563Z,95.9
2017-03-10T00:34:21.037Z,95.9
2017-03-10T00:35:23.488Z,95.8
2017-03-10T00:36:26.005Z,95.9
2017-03-10T00:37:28.794Z,95.9
2017-03-10T00:38:31.781Z,95.9
2017-03-10T00:39:33.744Z,95.9
2017-03-10T00:40:36.700Z,95.9
2017-03-10T00:41:39.155Z,95.9
2017-03-10T00:42:41.638Z,95.9
2017-03-10T00:43:44.105Z,95.9
2017-03-10T00:45:49.470Z,95.8
2017-03-10T00:46:51.920Z,95.9
2017-03-10T00:47:54.215Z,95.9
2017-03-10T00:48:57.190Z,95.8
2017-03-10T00:49:59.652Z,95.8
2017-03-10T00:53:07.440Z,95.8
2017-03-10T00:57:18.130Z,95.9
2017-03-10T01:05:39.304Z,95.9
2017-03-10T01:06:41.273Z,95.9
2017-03-10T01:07:44.263Z,95.9
2017-03-10T01:08:46.236Z,95.9
2017-03-10T01:10:51.598Z,95.9
2017-03-10T01:13:59.380Z,95.9
2017-03-10T01:32:45.785Z,95.9
2017-03-10T01:36:55.966Z,95.9
2017-03-10T01:37:58.945Z,95.9
2017-03-10T01:39:01.931Z,95.9
2017-03-10T01:40:03.901Z,95.9
2017-03-10T01:41:06.374Z,95.9
2017-03-10T01:42:08.851Z,95.9
2017-03-10T01:43:11.814Z,95.9
2017-03-10T01:44:14.104Z,95.9
2017-03-10T01:45:16.567Z,95.9
2017-03-10T01:46:19.538Z,95.9
2017-03-10T01:47:21.992Z,95.9
2017-03-10T01:48:24.448Z,95.9
2017-03-10T01:49:27.467Z,95.9
2017-03-10T01:50:29.918Z,95.9
2017-03-10T01:51:32.369Z,95.9
2017-03-10T01:52:34.857Z,95.9
2017-03-10T01:53:37.307Z,95.9
2017-03-10T01:54:40.787Z,95.9
2017-03-10T01:55:43.300Z,95.9
2017-03-10T01:56:45.255Z,95.9
2017-03-10T01:57:47.710Z,95.9
2017-03-10T01:58:50.200Z,95.9
2017-03-10T01:59:53.158Z,95.9
2017-03-10T02:00:55.614Z,95.9
2017-03-10T02:01:58.086Z,95.9
2017-03-10T02:03:00.555Z,95.9
2017-03-10T02:04:03.014Z,95.9
2017-03-10T02:05:05.968Z,95.9
2017-03-10T02:06:08.445Z,95.9
2017-03-10T02:07:10.905Z,95.9
2017-03-10T02:08:13.880Z,95.9
2017-03-10T02:09:16.341Z,95.9
2017-03-10T02:10:18.805Z,95.9
2017-03-10T02:11:21.281Z,95.9
2017-03-10T02:12:23.729Z,95.9
2017-03-10T02:13:26.522Z,95.9
2017-03-10T02:14:28.984Z,95.9
2017-03-10T02:15:31.467Z,95.9
2017-03-10T02:16:34.424Z,95.9
2017-03-10T02:17:36.910Z,95.9
2017-03-10T02:18:39.367Z,95.9
2017-03-10T02:19:41.831Z,95.9
2017-03-10T02:20:44.291Z,95.9
2017-03-10T02:21:47.249Z,95.9
2017-03-10T02:22:49.705Z,95.9
2017-03-10T02:23:52.161Z,95.9
2017-03-10T02:25:57.536Z,95.9
2017-03-10T02:26:59.999Z,95.9
2017-03-10T02:28:02.467Z,95.9
2017-03-10T02:29:04.934Z,95.9
2017-03-10T02:30:07.738Z,95.9
2017-03-10T02:31:10.192Z,95.9
2017-03-10T02:32:12.651Z,95.9
2017-03-10T02:33:15.623Z,95.9
2017-03-10T02:34:18.097Z,95.9
2017-03-10T02:35:20.578Z,95.9
2017-03-10T02:36:23.041Z,95.9
2017-03-10T02:37:25.489Z,95.9
2017-03-10T02:38:28.445Z,95.9
2017-03-10T02:39:30.900Z,95.9
2017-03-10T02:40:33.352Z,95.9
2017-03-10T02:41:35.807Z,95.9
2017-03-10T02:43:41.181Z,95.9
2017-03-10T02:44:43.661Z,95.9
2017-03-10T02:45:46.147Z,95.9
2017-03-10T02:46:49.143Z,95.9
2017-03-10T02:47:51.606Z,95.9
2017-03-10T02:48:54.057Z,95.9
2017-03-10T02:49:56.512Z,95.9
2017-03-10T02:50:59.483Z,95.9
2017-03-10T02:52:01.982Z,95.9
2017-03-10T02:53:04.458Z,95.9
2017-03-10T02:54:06.923Z,96
2017-03-10T02:55:09.719Z,96
2017-03-10T02:56:12.189Z,96
2017-03-10T02:57:15.172Z,96
2017-03-10T03:01:25.029Z,96
2017-03-10T03:05:35.740Z,96
2017-03-10T03:06:37.689Z,96
2017-03-10T03:07:40.151Z,96
2017-03-10T03:09:45.524Z,96
2017-03-10T03:10:48.000Z,96
2017-03-10T03:21:13.628Z,96.1
2017-03-10T03:23:18.993Z,96.1
2017-03-10T04:16:30.612Z,96.2
2017-03-10T04:26:55.979Z,96.2
2017-03-10T04:30:03.086Z,96.2
2017-03-10T04:45:41.994Z,96.2
2017-03-10T04:46:44.456Z,96.2
2017-03-10T04:47:46.928Z,96.2
2017-03-10T04:48:49.411Z,96.2
2017-03-10T04:49:51.880Z,96.2
2017-03-10T04:50:54.341Z,96.2
2017-03-10T04:51:56.812Z,96.2
2017-03-10T04:52:59.774Z,96.2
2017-03-10T04:54:02.291Z,96.2
2017-03-10T04:55:04.754Z,96.1
2017-03-10T04:56:07.232Z,96.1
2017-03-10T04:57:10.225Z,96.1
2017-03-10T04:58:12.179Z,96.1
2017-03-10T04:59:15.152Z,96.1
2017-03-10T05:00:17.616Z,96.1
2017-03-10T05:01:20.075Z,96.1
2017-03-10T05:02:22.531Z,96.1
2017-03-10T05:03:25.030Z,96.1
2017-03-10T05:04:27.991Z,96.1
2017-03-10T05:05:30.445Z,96.1
2017-03-10T05:06:32.918Z,96.1
2017-03-10T05:07:35.373Z,96.1
2017-03-10T05:08:38.185Z,96.1
2017-03-10T05:09:40.869Z,96.1
2017-03-10T05:11:45.748Z,96.1
2017-03-10T05:12:48.215Z,96.1
2017-03-10T05:14:53.597Z,96
2017-03-10T05:15:56.090Z,96
2017-03-10T05:16:58.549Z,96
2017-03-10T05:18:01.020Z,96
2017-03-10T05:22:12.225Z,96
2017-03-10T05:23:14.176Z,96
2017-03-10T05:24:16.635Z,96
2017-03-10T05:25:19.093Z,96
2017-03-10T05:26:21.550Z,96
2017-03-10T05:27:24.364Z,96
2017-03-10T05:28:26.834Z,96
2017-03-10T05:29:29.298Z,96
2017-03-10T05:30:31.761Z,96
2017-03-10T05:31:34.740Z,95.9
2017-03-10T05:32:37.084Z,95.9
2017-03-10T05:33:39.539Z,95.9
2017-03-10T05:37:50.224Z,95.9
2017-03-10T05:38:52.683Z,95.9
2017-03-10T05:39:55.149Z,95.9
2017-03-10T05:40:57.600Z,95.9
2017-03-10T05:42:00.201Z,95.9
2017-03-10T05:43:02.655Z,95.9
2017-03-10T05:44:05.619Z,95.9
2017-03-10T05:45:07.916Z,95.9
2017-03-10T05:46:10.706Z,95.9
2017-03-10T05:47:13.167Z,95.9
2017-03-10T05:48:15.507Z,95.8
2017-03-10T05:49:18.463Z,95.8
2017-03-10T05:50:20.917Z,95.8
2017-03-10T05:51:23.378Z,95.8
2017-03-10T05:52:25.832Z,95.8
2017-03-10T05:54:31.212Z,95.8
2017-03-10T05:55:33.498Z,95.8
2017-03-10T05:56:36.459Z,95.8
2017-03-10T05:57:38.911Z,95.8
2017-03-10T05:59:44.122Z,95.8
2017-03-10T06:01:48.987Z,95.8
2017-03-10T06:02:51.480Z,95.8
2017-03-10T06:03:54.440Z,95.8
2017-03-10T06:04:56.904Z,95.8
2017-03-10T06:05:59.914Z,95.7
2017-03-10T06:07:01.866Z,95.7
2017-03-10T06:08:04.336Z,95.7
2017-03-10T06:09:07.332Z,95.7
2017-03-10T06:10:09.799Z,95.7
2017-03-10T06:12:14.663Z,95.7
2017-03-10T06:13:17.119Z,95.7
2017-03-10T06:14:20.617Z,95.7
2017-03-10T06:15:22.419Z,95.7
2017-03-10T06:16:24.939Z,95.7
2017-03-10T06:17:27.897Z,95.7
2017-03-10T06:18:30.365Z,95.7
2017-03-10T06:19:32.819Z,95.7
2017-03-10T06:20:35.270Z,95.7
2017-03-10T06:21:37.725Z,95.7
2017-03-10T06:22:40.550Z,95.7
2017-03-10T06:24:45.613Z,95.7
2017-03-10T06:25:48.107Z,95.7
2017-03-10T06:26:50.563Z,95.7
2017-03-10T06:29:58.337Z,95.7
2017-03-10T06:31:01.305Z,95.7
2017-03-10T06:32:04.317Z,95.7
2017-03-10T06:33:06.291Z,95.7
2017-03-10T06:34:08.764Z,95.7
2017-03-10T06:35:11.745Z,95.7
2017-03-10T06:36:13.705Z,95.7
2017-03-10T06:37:16.661Z,95.7
2017-03-10T06:38:19.135Z,95.7
2017-03-10T06:39:21.586Z,95.7
2017-03-10T06:40:24.045Z,95.7
2017-03-10T06:41:26.862Z,95.7
2017-03-10T06:42:29.338Z,95.7
2017-03-10T06:43:31.797Z,95.7
2017-03-10T06:44:34.759Z,95.7
2017-03-10T06:45:37.059Z,95.7
2017-03-10T06:46:39.555Z,95.7
2017-03-10T06:47:42.016Z,95.7
2017-03-10T06:48:45.510Z,95.7
2017-03-10T06:49:47.473Z,95.7
2017-03-10T06:50:49.929Z,95.7
2017-03-10T06:51:52.397Z,95.7
2017-03-10T06:52:54.866Z,95.7
2017-03-10T06:53:57.821Z,95.7
2017-03-10T06:55:00.290Z,95.7
2017-03-10T06:56:02.757Z,95.7
2017-03-10T06:57:05.215Z,95.7
2017-03-10T06:58:08.177Z,95.7
2017-03-10T06:59:11.157Z,95.7
2017-03-10T07:00:13.122Z,95.7
2017-03-10T07:01:15.583Z,95.7
2017-03-10T07:02:18.038Z,95.7
2017-03-10T07:03:21.022Z,95.7
2017-03-10T07:04:23.472Z,95.7
2017-03-10T07:05:25.938Z,95.7
2017-03-10T07:06:28.397Z,95.7
2017-03-10T07:07:30.872Z,95.7
2017-03-10T07:08:33.846Z,95.7
2017-03-10T07:09:36.301Z,95.6
2017-03-10T07:10:38.766Z,95.7
2017-03-10T07:11:41.392Z,95.6
2017-03-10T07:12:43.850Z,95.6
2017-03-10T07:13:46.303Z,95.6
2017-03-10T07:14:49.266Z,95.6
2017-03-10T07:15:51.729Z,95.6
2017-03-10T07:17:56.596Z,95.6
2017-03-10T07:18:59.559Z,95.6
2017-03-10T07:20:02.025Z,95.6
2017-03-10T07:21:04.495Z,95.6
2017-03-10T07:22:06.972Z,95.6
2017-03-10T07:23:09.476Z,95.6
2017-03-10T07:24:12.440Z,95.6
2017-03-10T07:25:14.906Z,95.5
2017-03-10T07:26:17.380Z,95.5
2017-03-10T07:27:19.835Z,95.5
2017-03-10T07:28:22.818Z,95.5
2017-03-10T07:29:25.279Z,95.5
2017-03-10T07:30:27.590Z,95.5
2017-03-10T07:31:30.551Z,95.5
2017-03-10T07:32:33.020Z,95.5
2017-03-10T07:33:35.488Z,95.5
2017-03-10T07:34:37.956Z,95.5
2017-03-10T07:35:40.751Z,95.5
2017-03-10T07:36:43.207Z,95.5
2017-03-10T07:37:45.670Z,95.4
2017-03-10T07:38:48.136Z,95.4
2017-03-10T07:39:51.111Z,95.4
2017-03-10T07:40:53.576Z,95.4
2017-03-10T07:41:56.036Z,95.4
2017-03-10T07:42:58.657Z,95.4
2017-03-10T07:44:01.161Z,95.4
2017-03-10T07:45:03.447Z,95.4
2017-03-10T07:46:06.259Z,95.4
2017-03-10T07:47:09.224Z,95.3
2017-03-10T07:48:11.680Z,95.3
2017-03-10T07:50:16.536Z,95.3
2017-03-10T07:51:19.336Z,95.3
2017-03-10T07:52:21.824Z,95.3
2017-03-10T07:53:24.281Z,95.2
2017-03-10T07:54:27.077Z,95.2
2017-03-10T07:55:30.420Z,95.2
2017-03-10T07:56:32.395Z,95.2
2017-03-10T07:57:34.856Z,95.2
2017-03-10T07:58:37.169Z,95.2
2017-03-10T07:59:40.166Z,95.1
2017-03-10T08:00:42.617Z,95.1
2017-03-10T08:01:45.082Z,95.1
2017-03-10T08:02:47.536Z,95.1
2017-03-10T08:03:50.511Z,95.1
2017-03-10T08:04:52.990Z,95.1
2017-03-10T08:05:55.457Z,95.1
2017-03-10T08:06:57.925Z,95.1
2017-03-10T08:08:00.417Z,95.1
2017-03-10T08:09:03.381Z,95.1
2017-03-10T08:10:05.860Z,95.1
2017-03-10T08:11:08.156Z,95.1
2017-03-10T08:12:11.120Z,95
2017-03-10T08:13:13.422Z,95
2017-03-10T08:14:15.875Z,95
2017-03-10T08:15:19.376Z,95
2017-03-10T08:16:21.349Z,95
2017-03-10T08:17:23.804Z,95
2017-03-10T08:18:26.666Z,95
2017-03-10T08:19:28.982Z,94.9
2017-03-10T08:20:31.467Z,94.9
2017-03-10T08:21:34.461Z,94.9
2017-03-10T08:22:36.928Z,94.9
2017-03-10T08:23:39.382Z,94.9
2017-03-10T08:24:41.843Z,94.9
2017-03-10T08:25:44.808Z,94.9
2017-03-10T08:26:47.264Z,94.9
2017-03-10T08:27:49.719Z,94.9
2017-03-10T08:28:52.224Z,94.9
2017-03-10T08:29:55.181Z,94.8
2017-03-10T08:30:57.662Z,94.8
2017-03-10T08:31:59.948Z,94.8
2017-03-10T08:33:02.907Z,94.8
2017-03-10T08:34:05.377Z,94.8
2017-03-10T08:35:07.746Z,94.8
2017-03-10T08:36:10.729Z,94.8
2017-03-10T08:37:13.183Z,94.8
2017-03-10T08:38:15.482Z,94.8
2017-03-10T08:39:18.988Z,94.7
2017-03-10T08:40:20.970Z,94.7
2017-03-10T08:41:23.423Z,94.7
2017-03-10T08:42:25.894Z,94.7
2017-03-10T08:43:28.712Z,94.7
2017-03-10T08:43:58.970Z,94.7
2017-03-10T08:44:31.246Z,94.7
2017-03-10T08:45:33.705Z,94.7
2017-03-10T08:46:36.663Z,94.7
2017-03-10T08:47:38.951Z,94.7
2017-03-10T08:48:41.414Z,94.7
2017-03-10T08:49:44.212Z,94.7
2017-03-10T08:50:46.697Z,94.7
2017-03-10T08:51:49.654Z,94.7
2017-03-10T08:52:52.130Z,94.7
2017-03-10T08:54:57.019Z,94.6
2017-03-10T08:55:59.984Z,94.6
2017-03-10T08:58:04.841Z,94.6
2017-03-10T08:59:07.800Z,94.6
2017-03-10T09:00:10.260Z,94.6
2017-03-10T09:01:12.745Z,94.5
2017-03-10T09:03:18.113Z,94.4
2017-03-10T09:04:20.563Z,94.3
2017-03-10T09:05:23.018Z,94.3
2017-03-10T09:06:26.000Z,94.3
2017-03-10T09:07:28.464Z,94.3
2017-03-10T09:08:30.768Z,94.3
2017-03-10T09:09:33.736Z,94.4
2017-03-10T09:10:36.215Z,94.4
2017-03-10T09:11:39.047Z,94.4
2017-03-10T09:12:41.509Z,94.4
2017-03-10T09:13:43.966Z,94.4
2017-03-10T09:14:46.766Z,94.4
2017-03-10T09:15:49.239Z,94.4
2017-03-10T09:16:51.695Z,94.4
2017-03-10T09:17:54.648Z,94.4
2017-03-10T09:18:57.103Z,94.4
2017-03-10T09:19:59.557Z,94.4
2017-03-10T09:21:02.023Z,94.4
2017-03-10T09:22:04.854Z,94.4
2017-03-10T09:23:07.331Z,94.4
2017-03-10T09:24:09.816Z,94.4
2017-03-10T09:25:12.773Z,94.4
2017-03-10T09:26:15.800Z,94.4
2017-03-10T09:27:17.755Z,94.4
2017-03-10T09:28:20.213Z,94.3
2017-03-10T09:29:23.187Z,94.3
2017-03-10T09:30:25.475Z,94.3
2017-03-10T09:31:28.263Z,94.3
2017-03-10T09:31:58.749Z,94.3
2017-03-10T09:32:31.004Z,94.3
2017-03-10T09:33:33.299Z,94.3
2017-03-10T09:34:36.091Z,94.3
2017-03-10T09:35:38.548Z,94.3
2017-03-10T09:37:43.934Z,94.3
2017-03-10T09:38:46.924Z,94.3
2017-03-10T09:39:48.896Z,94.3
2017-03-10T09:40:51.865Z,94.3
2017-03-10T09:41:54.317Z,94.3
2017-03-10T09:42:56.780Z,94.3
2017-03-10T09:43:59.242Z,94.3
2017-03-10T09:45:02.218Z,94.3
2017-03-10T09:46:04.681Z,94.3
2017-03-10T09:47:07.140Z,94.3
2017-03-10T09:48:10.652Z,94.3
2017-03-10T09:49:12.601Z,94.3
2017-03-10T09:49:42.856Z,94.3
2017-03-10T09:50:15.136Z,94.3
2017-03-10T09:50:45.400Z,94.3
2017-03-10T09:51:17.675Z,94.3
2017-03-10T09:52:20.150Z,94.3
2017-03-10T09:52:50.398Z,94.3
2017-03-10T09:53:22.680Z,94.3
2017-03-10T09:54:25.638Z,94.3
2017-03-10T09:55:28.089Z,94.3
2017-03-10T09:56:30.717Z,94.2
2017-03-10T09:57:33.194Z,94.2
2017-03-10T09:58:35.660Z,94.2
2017-03-10T09:59:38.629Z,94.2
2017-03-10T10:00:41.103Z,94.3
2017-03-10T10:01:43.567Z,94.3
2017-03-10T10:02:46.537Z,94.3
2017-03-10T10:03:48.991Z,94.3
2017-03-10T10:04:51.446Z,94.3
2017-03-10T10:05:53.902Z,94.3
2017-03-10T10:06:56.872Z,94.3
2017-03-10T10:07:59.327Z,94.4
2017-03-10T10:09:01.783Z,94.4
2017-03-10T10:10:04.771Z,94.4
2017-03-10T10:11:07.277Z,94.4
2017-03-10T10:12:10.257Z,94.4
2017-03-10T10:13:12.208Z,94.4
2017-03-10T10:14:15.190Z,94.4
2017-03-10T10:15:17.666Z,94.5
2017-03-10T10:16:20.657Z,94.5
2017-03-10T10:17:22.610Z,94.5
2017-03-10T10:18:25.595Z,94.5
2017-03-10T10:19:28.048Z,94.5
2017-03-10T10:20:30.342Z,94.5
2017-03-10T10:21:33.305Z,94.5
2017-03-10T10:22:35.759Z,94.5
2017-03-10T10:23:38.564Z,94.6
2017-03-10T10:24:41.032Z,94.6
2017-03-10T10:25:43.503Z,94.6
2017-03-10T10:26:45.784Z,94.6
2017-03-10T10:27:49.288Z,94.6
2017-03-10T10:28:51.243Z,94.6
2017-03-10T10:29:53.695Z,94.6
2017-03-10T10:30:56.659Z,94.6
2017-03-10T10:31:59.143Z,94.6
2017-03-10T10:33:01.607Z,94.5
2017-03-10T10:34:04.580Z,94.5
2017-03-10T10:34:34.858Z,94.5
2017-03-10T10:35:07.131Z,94.5
2017-03-10T10:36:09.597Z,94.5
2017-03-10T10:37:11.911Z,94.5
2017-03-10T10:38:14.871Z,94.5
2017-03-10T10:38:45.449Z,94.5
2017-03-10T10:39:17.553Z,94.4
2017-03-10T10:40:19.866Z,94.4
2017-03-10T10:41:22.317Z,94.4
2017-03-10T10:42:25.272Z,94.4
2017-03-10T10:43:27.956Z,94.4
2017-03-10T10:44:30.412Z,94.4
2017-03-10T10:45:33.409Z,94.4
2017-03-10T10:46:35.360Z,94.3
2017-03-10T10:47:38.200Z,94.3
2017-03-10T10:48:40.651Z,94.3
2017-03-10T10:49:43.621Z,94.3
2017-03-10T10:50:46.082Z,94.3
2017-03-10T10:51:48.528Z,94.2
2017-03-10T10:52:51.011Z,94.2
2017-03-10T10:53:53.972Z,94.2
2017-03-10T10:54:56.483Z,94.2
2017-03-10T10:55:58.942Z,94.2
2017-03-10T10:56:29.196Z,94.2
2017-03-10T10:57:01.787Z,94.2
2017-03-10T10:59:06.665Z,94.2
2017-03-10T11:00:09.628Z,94.2
2017-03-10T11:02:14.487Z,94.1
2017-03-10T11:03:17.450Z,94.1
2017-03-10T11:04:19.937Z,94.1
2017-03-10T11:05:22.414Z,94
2017-03-10T11:06:24.703Z,94
2017-03-10T11:07:27.677Z,93.9
2017-03-10T11:08:30.131Z,93.9
2017-03-10T11:09:33.087Z,93.9
2017-03-10T11:10:35.548Z,93.9
2017-03-10T11:11:38.007Z,93.9
2017-03-10T11:12:41.492Z,93.9
2017-03-10T11:13:43.443Z,93.9
2017-03-10T11:14:45.913Z,93.8
2017-03-10T11:15:48.370Z,93.8
2017-03-10T11:16:51.327Z,93.7
2017-03-10T11:17:53.781Z,93.7
2017-03-10T11:18:56.247Z,93.6
2017-03-10T11:19:59.214Z,93.6
2017-03-10T11:21:01.672Z,93.6
2017-03-10T11:22:04.134Z,93.6
2017-03-10T11:23:07.091Z,93.6
2017-03-10T11:24:09.558Z,93.6
2017-03-10T11:26:14.936Z,93.6
2017-03-10T11:27:17.395Z,93.6
2017-03-10T11:28:19.858Z,93.6
2017-03-10T11:29:22.147Z,93.6
2017-03-10T11:30:25.167Z,93.6
2017-03-10T11:31:27.631Z,93.6
2017-03-10T11:32:30.605Z,93.6
2017-03-10T11:33:33.074Z,93.6
2017-03-10T11:34:35.537Z,93.6
2017-03-10T11:35:38.006Z,93.6
2017-03-10T11:36:40.959Z,93.5
2017-03-10T11:37:43.418Z,93.5
2017-03-10T11:38:45.884Z,93.5
2017-03-10T11:39:48.848Z,93.4
2017-03-10T11:40:51.247Z,93.4
2017-03-10T11:41:53.709Z,93.4
2017-03-10T11:42:56.681Z,93.4
2017-03-10T11:43:59.147Z,93.4
2017-03-10T11:45:01.612Z,93.5
2017-03-10T11:46:04.411Z,93.5
2017-03-10T11:47:06.868Z,93.5
2017-03-10T11:48:09.827Z,93.4
2017-03-10T11:49:12.115Z,93.4
2017-03-10T11:50:15.071Z,93.4
2017-03-10T11:52:20.276Z,93.3
2017-03-10T11:53:22.764Z,93.3
2017-03-10T11:54:25.234Z,93.2
2017-03-10T11:55:27.725Z,93.2
2017-03-10T11:56:30.534Z,93.1
2017-03-10T11:57:33.017Z,93.1
2017-03-10T11:58:35.973Z,93.1
2017-03-10T11:59:38.461Z,93.1
2017-03-10T12:00:40.938Z,93.1
2017-03-10T12:01:43.906Z,93.1
2017-03-10T12:02:46.200Z,93.1
2017-03-10T12:03:49.173Z,93.1
2017-03-10T12:04:51.627Z,93.1
2017-03-10T12:05:54.079Z,93.1
2017-03-10T12:06:56.565Z,93.1
2017-03-10T12:07:59.208Z,93.1
2017-03-10T12:09:02.224Z,93.1
2017-03-10T12:10:05.232Z,93
2017-03-10T12:11:07.037Z,93.1
2017-03-10T12:12:10.008Z,93.1
2017-03-10T12:13:12.493Z,93.1
2017-03-10T12:14:15.284Z,93.1
2017-03-10T12:15:17.744Z,93.2
2017-03-10T12:16:20.224Z,93.2
2017-03-10T12:17:23.195Z,93.2
2017-03-10T12:18:25.668Z,93.3
2017-03-10T12:19:28.139Z,93.3
2017-03-10T12:20:30.993Z,93.4
2017-03-10T12:21:33.472Z,93.4
2017-03-10T12:22:35.932Z,93.4
2017-03-10T12:23:38.720Z,93.5
2017-03-10T12:24:41.214Z,93.5
2017-03-10T12:25:43.698Z,93.5
2017-03-10T12:26:46.331Z,93.5
2017-03-10T12:27:49.127Z,93.5
2017-03-10T12:28:51.582Z,93.5
2017-03-10T12:29:54.539Z,93.5
2017-03-10T12:30:56.989Z,93.5
2017-03-10T12:31:59.448Z,93.5
2017-03-10T12:33:02.412Z,93.4
2017-03-10T12:34:04.870Z,93.4
2017-03-10T12:35:07.665Z,93.4
2017-03-10T12:36:10.131Z,93.4
2017-03-10T12:37:12.611Z,93.3
2017-03-10T12:38:15.243Z,93.3
2017-03-10T12:39:17.700Z,93.3
2017-03-10T12:40:20.677Z,93.3
2017-03-10T12:41:23.146Z,93.3
2017-03-10T12:42:25.603Z,93.3
2017-03-10T12:43:28.563Z,93.3
2017-03-10T12:44:30.852Z,93.3
2017-03-10T12:45:33.815Z,93.2
2017-03-10T12:46:36.299Z,93.2
2017-03-10T12:47:39.103Z,93.1
2017-03-10T12:48:41.559Z,93.1
2017-03-10T12:50:46.939Z,93
2017-03-10T12:51:49.229Z,93
2017-03-10T12:52:52.218Z,93
2017-03-10T12:53:54.681Z,93
2017-03-10T12:54:57.134Z,92.9
2017-03-10T12:56:00.101Z,92.9
2017-03-10T12:57:02.556Z,92.9
2017-03-10T12:58:05.345Z,92.9
2017-03-10T12:59:07.835Z,92.9
2017-03-10T13:00:10.289Z,92.9
2017-03-10T13:01:13.253Z,92.9
2017-03-10T13:02:15.708Z,93
2017-03-10T13:03:18.199Z,93
2017-03-10T13:04:20.661Z,93
2017-03-10T13:05:23.620Z,93.1
2017-03-10T13:06:26.081Z,93.1
2017-03-10T13:07:28.578Z,93.2
2017-03-10T13:08:31.369Z,93.2
2017-03-10T13:09:33.822Z,93.3
2017-03-10T13:10:36.660Z,93.3
2017-03-10T13:11:39.137Z,93.3
2017-03-10T13:12:41.600Z,93.3
2017-03-10T13:13:44.576Z,93.3
2017-03-10T13:14:47.029Z,93.2
2017-03-10T13:15:49.497Z,93.2
2017-03-10T13:16:52.456Z,93.2
2017-03-10T13:18:57.320Z,93.1
2017-03-10T13:24:10.920Z,93
2017-03-10T13:25:13.370Z,93
2017-03-10T13:27:18.738Z,92.8
2017-03-10T13:28:21.190Z,92.8
2017-03-10T13:30:26.565Z,92.8
2017-03-10T13:31:29.085Z,92.7
2017-03-10T13:33:34.453Z,92.7
2017-03-10T13:34:36.758Z,92.7
2017-03-10T13:36:42.125Z,92.6
2017-03-10T13:37:45.086Z,92.6
2017-03-10T13:38:47.554Z,92.6
2017-03-10T13:39:50.018Z,92.6
2017-03-10T13:42:57.793Z,92.6
2017-03-10T14:03:50.339Z,93
2017-03-10T14:04:53.310Z,93
2017-03-10T14:05:55.786Z,93
2017-03-10T14:06:58.249Z,93
2017-03-10T14:08:01.215Z,93
2017-03-10T14:09:03.696Z,93.1
2017-03-10T14:10:06.153Z,93.1
2017-03-10T14:11:08.962Z,93.1
2017-03-10T14:12:11.417Z,93.1
2017-03-10T14:13:14.383Z,93.1
2017-03-10T14:14:16.880Z,93.1
2017-03-10T14:15:19.334Z,93.1
2017-03-10T14:16:22.290Z,93.1
2017-03-10T14:17:24.575Z,93.1
2017-03-10T14:18:27.541Z,93
2017-03-10T14:19:30.019Z,93
2017-03-10T14:20:32.483Z,93
2017-03-10T14:21:35.461Z,93
2017-03-10T14:22:37.809Z,93
2017-03-10T14:23:40.279Z,93
2017-03-10T14:24:43.276Z,93
2017-03-10T14:25:45.736Z,93
2017-03-10T14:26:48.209Z,93
2017-03-10T14:27:51.171Z,92.9
2017-03-10T14:28:53.629Z,92.9
2017-03-10T14:29:56.096Z,92.9
2017-03-10T14:30:59.068Z,92.9
2017-03-10T14:32:01.531Z,92.9
2017-03-10T14:33:03.992Z,92.9
2017-03-10T14:34:07.000Z,92.9
2017-03-10T14:35:09.492Z,92.9
2017-03-10T14:36:12.288Z,92.9
2017-03-10T14:37:14.577Z,93
2017-03-10T14:38:17.407Z,93
2017-03-10T14:39:19.874Z,93
2017-03-10T14:40:22.336Z,93.1
2017-03-10T14:42:27.728Z,93.1
2017-03-10T14:43:30.183Z,93.1
2017-03-10T14:44:33.683Z,93.1
2017-03-10T14:45:35.633Z,93.2
2017-03-10T14:46:38.123Z,93.2
2017-03-10T14:47:08.370Z,93.2
2017-03-10T14:47:41.135Z,93.2
2017-03-10T14:48:43.454Z,93.2
2017-03-10T14:49:46.243Z,93.2
2017-03-10T14:50:48.706Z,93.2
2017-03-10T14:51:51.667Z,93.2
2017-03-10T14:52:54.126Z,93.1
2017-03-10T14:53:56.448Z,93.1
2017-03-10T14:54:59.428Z,93.1
2017-03-10T14:56:01.890Z,93
2017-03-10T14:57:04.356Z,93
2017-03-10T14:58:07.313Z,93
2017-03-10T14:59:09.797Z,93
2017-03-10T15:00:12.255Z,92.9
2017-03-10T15:01:15.214Z,92.9
2017-03-10T15:02:17.512Z,92.9
2017-03-10T15:04:22.873Z,93
2017-03-10T15:05:25.842Z,93
2017-03-10T15:07:31.062Z,92.9
2017-03-10T15:09:35.918Z,92.9
2017-03-10T15:10:38.872Z,92.9
2017-03-10T15:11:41.143Z,92.9
2017-03-10T15:12:44.128Z,92.9
2017-03-10T15:13:46.596Z,92.8
2017-03-10T15:14:49.060Z,92.8
2017-03-10T15:15:52.014Z,92.8
2017-03-10T15:16:55.006Z,92.8
2017-03-10T15:17:56.961Z,92.8
2017-03-10T15:18:59.923Z,92.8
2017-03-10T15:20:02.391Z,92.8
2017-03-10T15:21:05.186Z,92.8
2017-03-10T15:22:07.504Z,92.8
2017-03-10T15:23:10.472Z,92.8
2017-03-10T15:24:12.921Z,92.8
2017-03-10T15:25:15.753Z,92.8
2017-03-10T15:26:18.053Z,92.8
2017-03-10T15:27:21.012Z,92.8
2017-03-10T15:28:23.510Z,92.8
2017-03-10T15:29:25.963Z,92.8
2017-03-10T15:30:28.928Z,92.8
2017-03-10T15:32:33.823Z,92.8
2017-03-10T15:34:39.192Z,92.9
2017-03-10T15:37:46.975Z,93
2017-03-10T15:40:55.244Z,93.1
2017-03-10T16:09:05.800Z,93.4
2017-03-10T16:11:11.174Z,93.4
2017-03-10T16:12:13.634Z,93.4
2017-03-10T16:18:29.646Z,93.4
2017-03-10T16:20:34.514Z,93.4
2017-03-10T16:21:37.469Z,93.4
2017-03-10T16:22:39.922Z,93.4
2017-03-10T16:23:42.559Z,93.4
2017-03-10T16:24:45.021Z,93.4
2017-03-10T16:25:47.809Z,93.4
2017-03-10T16:26:50.285Z,93.4
2017-03-10T16:27:53.134Z,93.4
2017-03-10T16:28:55.588Z,93.4
2017-03-10T16:29:58.546Z,93.5
2017-03-10T16:31:00.838Z,93.5
2017-03-10T16:32:03.540Z,93.5
2017-03-10T16:33:06.024Z,93.5
2017-03-10T16:34:08.980Z,93.5
2017-03-10T16:35:11.450Z,93.5
2017-03-10T16:36:13.905Z,93.5
2017-03-10T16:37:16.869Z,93.5
2017-03-10T16:38:19.323Z,93.5
2017-03-10T16:39:21.800Z,93.5
2017-03-10T16:40:24.758Z,93.5
2017-03-10T16:41:27.211Z,93.5
2017-03-10T16:42:29.671Z,93.5
2017-03-10T16:43:32.638Z,93.5
2017-03-10T16:44:35.092Z,93.5
2017-03-10T16:45:37.394Z,93.5
2017-03-10T16:46:40.364Z,93.5
2017-03-10T16:47:42.825Z,93.5
2017-03-10T16:48:45.278Z,93.6
2017-03-10T16:49:48.249Z,93.6
2017-03-10T16:50:50.707Z,93.6
2017-03-10T16:51:53.176Z,93.6
2017-03-10T16:52:56.132Z,93.6
2017-03-10T16:55:01.001Z,93.6
2017-03-10T16:56:03.825Z,93.6
2017-03-10T16:57:06.290Z,93.6
2017-03-10T16:58:09.248Z,93.7
2017-03-10T16:59:11.712Z,93.7
2017-03-10T17:00:14.502Z,93.7
2017-03-10T17:01:16.958Z,93.7
2017-03-10T17:02:19.242Z,93.7
2017-03-10T17:03:21.890Z,93.7
2017-03-10T17:04:24.861Z,93.7
2017-03-10T17:06:29.738Z,93.8
2017-03-10T17:07:32.707Z,93.8
2017-03-10T17:08:35.174Z,93.8
2017-03-10T17:09:37.662Z,93.8
2017-03-10T17:11:43.048Z,93.8
2017-03-10T17:12:45.337Z,93.9
2017-03-10T17:13:48.301Z,93.9
2017-03-10T17:14:50.782Z,93.9
2017-03-10T17:15:53.240Z,93.9
2017-03-10T17:16:56.234Z,93.9
2017-03-10T17:17:58.531Z,93.9
2017-03-10T17:20:03.916Z,94
2017-03-10T17:21:06.372Z,94
2017-03-10T17:22:09.353Z,94
2017-03-10T17:23:11.825Z,94
2017-03-10T17:24:14.292Z,94
2017-03-10T17:25:16.750Z,94
2017-03-10T17:26:19.735Z,94
2017-03-10T17:27:22.206Z,94
2017-03-10T17:28:24.522Z,94
2017-03-10T17:29:27.507Z,94.1
2017-03-10T17:30:29.968Z,94.1
2017-03-10T17:31:32.441Z,94.1
2017-03-10T17:32:35.401Z,94.1
2017-03-10T17:33:37.884Z,94.1
2017-03-10T17:34:40.864Z,94.1
2017-03-10T17:35:43.167Z,94.1
2017-03-10T17:36:45.625Z,94.2
2017-03-10T17:37:48.091Z,94.2
2017-03-10T17:38:51.063Z,94.2
2017-03-10T17:39:53.519Z,94.2
2017-03-10T17:40:55.975Z,94.2
2017-03-10T17:41:58.938Z,94.2
2017-03-10T17:43:01.397Z,94.2
2017-03-10T17:44:03.869Z,94.2
2017-03-10T17:45:06.357Z,94.2
2017-03-10T17:46:09.336Z,94.3
2017-03-10T17:47:11.801Z,94.3
2017-03-10T17:48:14.253Z,94.3
2017-03-10T17:49:16.713Z,94.3
2017-03-10T17:50:19.690Z,94.3
2017-03-10T17:51:22.068Z,94.3
2017-03-10T17:52:24.866Z,94.3
2017-03-10T17:53:27.344Z,94.3
2017-03-10T17:54:29.825Z,94.4